Time,TemperatureF,DewpointF,PressureIn,WindDirection,WindDirectionDegrees,WindSpeedMPH,WindSpeedGustMPH,Humidity,HourlyPrecipIn,Conditions,Clouds,dailyrainin,SoftwareType,DateUTC
2013-08-04 00:00:00,76.7,67.8,29.97,ESE,113,0.4,0.4,74,0.00,,,0.00,WUHU216HW,2013-08-04 04:00:00,
2013-08-04 00:01:00,76.7,67.8,29.97,ESE,113,0.4,0.4,74,0.00,,,0.00,WUHU216HW,2013-08-04 04:01:00,
2013-08-04 00:06:00,76.7,67.8,29.97,ESE,113,0.4,0.4,74,0.00,,,0.00,WUHU216HW,2013-08-04 04:06:00,
2013-08-04 00:30:00,76.7,67.4,29.97,North,0,0.0,0.0,73,0.00,,,0.00,WUHU216HW,2013-08-04 04:30:00,
2013-08-04 00:35:00,76.7,67.4,29.97,North,0,0.0,0.0,73,0.00,,,0.00,WUHU216HW,2013-08-04 04:35:00,
2013-08-04 01:00:00,75.6,67.2,29.96,North,0,0.0,0.0,75,0.00,,,0.00,WUHU216HW,2013-08-04 05:00:00,
2013-08-04 01:05:00,75.6,67.2,29.96,North,0,0.0,0.0,75,0.00,,,0.00,WUHU216HW,2013-08-04 05:05:00,
2013-08-04 01:30:00,76.3,67.8,29.95,North,0,0.0,0.0,75,0.00,,,0.00,WUHU216HW,2013-08-04 05:30:00,
2013-08-04 01:35:00,76.3,67.8,29.95,North,0,0.0,0.0,75,0.00,,,0.00,WUHU216HW,2013-08-04 05:35:00,
2013-08-04 01:59:00,75.4,66.6,29.94,SE,135,0.0,0.0,74,0.00,,,0.00,WUHU216HW,2013-08-04 05:59:00,
2013-08-04 02:00:00,75.4,66.6,29.94,SE,135,0.0,0.0,74,0.00,,,0.00,WUHU216HW,2013-08-04 06:00:00,
2013-08-04 02:05:00,75.4,66.6,29.94,SE,135,0.0,0.0,74,0.00,,,0.00,WUHU216HW,2013-08-04 06:05:00,
2013-08-04 02:30:00,74.9,66.4,29.94,East,90,0.0,0.0,75,0.00,,,0.00,WUHU216HW,2013-08-04 06:30:00,
2013-08-04 02:35:00,74.9,66.4,29.94,East,90,0.0,0.0,75,0.00,,,0.00,WUHU216HW,2013-08-04 06:35:00,
2013-08-04 02:59:00,75.2,66.8,29.92,East,90,0.0,0.0,75,0.00,,,0.00,WUHU216HW,2013-08-04 06:59:00,
2013-08-04 03:00:00,75.2,66.8,29.92,East,90,0.0,0.0,75,0.00,,,0.00,WUHU216HW,2013-08-04 07:00:00,
2013-08-04 03:05:00,75.2,66.8,29.92,East,90,0.0,0.0,75,0.00,,,0.00,WUHU216HW,2013-08-04 07:05:00,
2013-08-04 03:30:00,73.8,65.4,29.92,NNE,23,0.0,0.0,75,0.00,,,0.00,WUHU216HW,2013-08-04 07:30:00,
2013-08-04 03:35:00,73.8,65.4,29.92,NNE,23,0.0,0.0,75,0.00,,,0.00,WUHU216HW,2013-08-04 07:35:00,
2013-08-04 03:59:00,72.9,66.1,29.92,West,270,2.2,2.2,79,0.00,,,0.00,WUHU216HW,2013-08-04 07:59:00,
2013-08-04 04:00:00,72.9,66.1,29.92,West,270,2.2,2.2,79,0.00,,,0.00,WUHU216HW,2013-08-04 08:00:00,
2013-08-04 04:05:00,72.9,66.1,29.92,West,270,2.2,2.2,79,0.00,,,0.00,WUHU216HW,2013-08-04 08:05:00,
2013-08-04 04:30:00,74.0,66.3,29.92,NW,315,0.8,0.8,77,0.00,,,0.00,WUHU216HW,2013-08-04 08:30:00,
2013-08-04 04:35:00,74.0,66.3,29.92,NW,315,0.8,0.8,77,0.00,,,0.00,WUHU216HW,2013-08-04 08:35:00,
2013-08-04 04:59:00,72.9,65.7,29.92,WNW,293,2.2,2.2,78,0.00,,,0.00,WUHU216HW,2013-08-04 08:59:00,
2013-08-04 05:00:00,72.9,65.7,29.92,WNW,293,2.2,2.2,78,0.00,,,0.00,WUHU216HW,2013-08-04 09:00:00,
2013-08-04 05:05:00,72.9,65.7,29.92,WNW,293,2.2,2.2,78,0.00,,,0.00,WUHU216HW,2013-08-04 09:05:00,
2013-08-04 05:30:00,72.4,65.5,29.93,NW,315,2.2,2.2,79,0.00,,,0.00,WUHU216HW,2013-08-04 09:30:00,
2013-08-04 05:35:00,72.4,65.5,29.93,NW,315,2.2,2.2,79,0.00,,,0.00,WUHU216HW,2013-08-04 09:35:00,
2013-08-04 05:59:00,72.2,65.7,29.93,NW,315,2.2,2.2,80,0.00,,,0.00,WUHU216HW,2013-08-04 09:59:00,
2013-08-04 06:00:00,72.2,65.7,29.93,NW,315,2.2,2.2,80,0.00,,,0.00,WUHU216HW,2013-08-04 10:00:00,
2013-08-04 06:05:00,72.2,65.7,29.93,NW,315,2.2,2.2,80,0.00,,,0.00,WUHU216HW,2013-08-04 10:05:00,
2013-08-04 06:29:00,73.8,66.2,29.94,NW,315,0.4,0.4,77,0.00,,,0.00,WUHU216HW,2013-08-04 10:29:00,
2013-08-04 06:30:00,73.8,66.2,29.94,NW,315,0.4,0.4,77,0.00,,,0.00,WUHU216HW,2013-08-04 10:30:00,
2013-08-04 06:35:00,73.8,66.2,29.94,NW,315,0.4,0.4,77,0.00,,,0.00,WUHU216HW,2013-08-04 10:35:00,
2013-08-04 07:00:00,73.8,66.6,29.95,WNW,293,0.8,0.8,78,0.00,,,0.00,WUHU216HW,2013-08-04 11:00:00,
2013-08-04 07:05:00,73.8,66.6,29.95,WNW,293,0.8,0.8,78,0.00,,,0.00,WUHU216HW,2013-08-04 11:05:00,
2013-08-04 07:30:00,73.4,65.8,29.96,NNW,338,1.8,1.8,77,0.00,,,0.00,WUHU216HW,2013-08-04 11:30:00,
2013-08-04 07:35:00,73.4,65.8,29.96,NNW,338,1.8,1.8,77,0.00,,,0.00,WUHU216HW,2013-08-04 11:35:00,
2013-08-04 08:00:00,73.6,66.4,29.96,NW,315,0.8,0.8,78,0.00,,,0.00,WUHU216HW,2013-08-04 12:00:00,
2013-08-04 08:05:00,73.6,66.4,29.96,NW,315,0.8,0.8,78,0.00,,,0.00,WUHU216HW,2013-08-04 12:05:00,
2013-08-04 08:30:00,74.5,67.2,29.97,NNW,338,1.8,1.8,78,0.00,,,0.00,WUHU216HW,2013-08-04 12:30:00,
2013-08-04 08:35:00,74.5,67.2,29.97,NNW,338,1.8,1.8,78,0.00,,,0.00,WUHU216HW,2013-08-04 12:35:00,
2013-08-04 09:00:00,75.1,67.8,29.98,NW,315,0.0,0.0,78,0.00,,,0.00,WUHU216HW,2013-08-04 13:00:00,
2013-08-04 09:05:00,75.1,67.8,29.98,NW,315,0.0,0.0,78,0.00,,,0.00,WUHU216HW,2013-08-04 13:05:00,
2013-08-04 09:29:00,76.0,67.9,29.99,North,0,0.0,0.0,76,0.00,,,0.00,WUHU216HW,2013-08-04 13:29:00,
2013-08-04 09:30:00,76.0,67.9,29.99,North,0,0.0,0.0,76,0.00,,,0.00,WUHU216HW,2013-08-04 13:30:00,
2013-08-04 09:35:00,76.0,67.9,29.99,North,0,0.0,0.0,76,0.00,,,0.00,WUHU216HW,2013-08-04 13:35:00,
2013-08-04 09:59:00,77.8,68.8,29.99,North,0,2.2,2.2,74,0.00,,,0.00,WUHU216HW,2013-08-04 13:59:00,
2013-08-04 10:00:00,77.8,68.8,29.99,North,0,2.2,2.2,74,0.00,,,0.00,WUHU216HW,2013-08-04 14:00:00,
2013-08-04 10:05:00,77.8,68.8,29.99,North,0,2.2,2.2,74,0.00,,,0.00,WUHU216HW,2013-08-04 14:05:00,
2013-08-04 10:29:00,78.8,68.6,29.99,East,90,0.4,0.4,71,0.00,,,0.00,WUHU216HW,2013-08-04 14:29:00,
2013-08-04 10:30:00,78.8,68.6,29.99,East,90,0.4,0.4,71,0.00,,,0.00,WUHU216HW,2013-08-04 14:30:00,
2013-08-04 10:35:00,78.8,68.6,29.99,East,90,0.4,0.4,71,0.00,,,0.00,WUHU216HW,2013-08-04 14:35:00,
2013-08-04 11:00:00,78.5,67.5,30.00,North,0,0.8,0.8,69,0.00,,,0.00,WUHU216HW,2013-08-04 15:00:00,
2013-08-04 11:05:00,78.5,67.5,30.00,North,0,0.8,0.8,69,0.00,,,0.00,WUHU216HW,2013-08-04 15:05:00,
2013-08-04 11:30:00,78.5,67.1,30.02,NE,45,2.2,2.2,68,0.00,,,0.00,WUHU216HW,2013-08-04 15:30:00,
2013-08-04 11:35:00,78.5,67.1,30.02,NE,45,2.2,2.2,68,0.00,,,0.00,WUHU216HW,2013-08-04 15:35:00,
2013-08-04 12:00:00,80.1,68.1,30.01,North,0,0.8,0.8,67,0.00,,,0.00,WUHU216HW,2013-08-04 16:00:00,
2013-08-04 12:05:00,80.1,68.1,30.01,North,0,0.8,0.8,67,0.00,,,0.00,WUHU216HW,2013-08-04 16:05:00,
2013-08-04 12:30:00,80.6,67.3,30.02,West,270,0.0,0.0,64,0.00,,,0.00,WUHU216HW,2013-08-04 16:30:00,
2013-08-04 12:35:00,80.6,67.3,30.02,West,270,0.0,0.0,64,0.00,,,0.00,WUHU216HW,2013-08-04 16:35:00,
2013-08-04 12:43:00,81.2,68.2,30.01,North,0,0.4,0.4,65,0.00,,,0.00,WUHU216HW,2013-08-04 16:43:00,
2013-08-04 12:47:00,81.9,68.5,30.01,NE,45,0.8,1.8,64,0.00,,,0.00,WUHU216HW,2013-08-04 16:47:00,
2013-08-04 12:53:00,81.9,67.6,30.01,ENE,68,1.8,2.6,62,0.00,,,0.00,WUHU216HW,2013-08-04 16:53:00,
2013-08-04 12:58:00,81.5,66.8,30.01,NW,315,2.2,3.6,61,0.00,,,0.00,WUHU216HW,2013-08-04 16:58:00,
2013-08-04 13:03:00,82.4,65.6,30.01,NNE,23,0.4,3.6,57,0.00,,,0.00,WUHU216HW,2013-08-04 17:03:00,
2013-08-04 13:08:00,82.6,66.8,30.01,West,270,0.8,3.2,59,0.00,,,0.00,WUHU216HW,2013-08-04 17:08:00,
2013-08-04 13:13:00,82.8,67.0,30.01,ENE,68,0.0,2.2,59,0.00,,,0.00,WUHU216HW,2013-08-04 17:13:00,
2013-08-04 13:18:00,82.6,66.8,30.00,South,180,0.8,0.8,59,0.00,,,0.00,WUHU216HW,2013-08-04 17:18:00,
2013-08-04 13:23:00,82.4,65.6,30.00,SSW,203,0.8,3.2,57,0.00,,,0.00,WUHU216HW,2013-08-04 17:23:00,
2013-08-04 13:28:00,82.6,65.8,30.00,North,0,0.8,3.6,57,0.00,,,0.00,WUHU216HW,2013-08-04 17:28:00,
2013-08-04 13:32:00,83.0,66.6,30.00,ESE,113,0.4,3.6,58,0.00,,,0.00,WUHU216HW,2013-08-04 17:32:00,
2013-08-04 13:38:00,82.8,64.9,30.00,NNW,338,1.4,2.6,55,0.00,,,0.00,WUHU216HW,2013-08-04 17:38:00,
2013-08-04 13:42:00,82.1,65.8,30.00,NNW,338,0.8,2.6,58,0.00,,,0.00,WUHU216HW,2013-08-04 17:42:00,
2013-08-04 13:48:00,82.8,67.0,30.00,West,270,1.8,2.2,59,0.00,,,0.00,WUHU216HW,2013-08-04 17:48:00,
2013-08-04 13:53:00,83.7,66.9,30.00,North,0,0.0,2.6,57,0.00,,,0.00,WUHU216HW,2013-08-04 17:53:00,
2013-08-04 13:58:00,83.7,67.3,30.00,North,0,0.8,2.6,58,0.00,,,0.00,WUHU216HW,2013-08-04 17:58:00,
2013-08-04 14:03:00,82.6,66.2,30.00,SSW,203,0.8,0.8,58,0.00,,,0.00,WUHU216HW,2013-08-04 18:03:00,
2013-08-04 14:07:00,82.4,65.6,30.00,East,90,0.8,1.8,57,0.00,,,0.00,WUHU216HW,2013-08-04 18:07:00,
2013-08-04 14:13:00,83.5,67.7,30.00,WSW,248,3.6,3.6,59,0.00,,,0.00,WUHU216HW,2013-08-04 18:13:00,
2013-08-04 14:18:00,84.2,65.3,30.00,SW,225,0.4,3.6,53,0.00,,,0.00,WUHU216HW,2013-08-04 18:18:00,
2013-08-04 14:23:00,83.9,66.5,29.99,NE,45,0.0,2.6,56,0.00,,,0.00,WUHU216HW,2013-08-04 18:23:00,
2013-08-04 14:28:00,83.2,66.3,29.99,NNE,23,0.0,2.6,57,0.00,,,0.00,WUHU216HW,2013-08-04 18:28:00,
2013-08-04 14:33:00,83.2,65.8,29.99,NE,45,0.8,1.4,56,0.00,,,0.00,WUHU216HW,2013-08-04 18:33:00,
2013-08-04 14:37:00,83.3,66.5,29.99,WSW,248,0.0,1.4,57,0.00,,,0.00,WUHU216HW,2013-08-04 18:37:00,
2013-08-04 14:43:00,83.5,67.1,29.99,North,0,0.0,0.8,58,0.00,,,0.00,WUHU216HW,2013-08-04 18:43:00,
2013-08-04 14:48:00,83.2,66.8,29.99,SW,225,1.4,4.0,58,0.00,,,0.00,WUHU216HW,2013-08-04 18:48:00,
2013-08-04 14:53:00,83.7,67.3,29.99,NNE,23,1.4,4.0,58,0.00,,,0.00,WUHU216HW,2013-08-04 18:53:00,
2013-08-04 14:58:00,84.1,67.2,29.99,East,90,0.8,3.6,57,0.00,,,0.00,WUHU216HW,2013-08-04 18:58:00,
2013-08-04 15:03:00,83.9,64.9,29.99,ENE,68,1.8,3.6,53,0.00,,,0.00,WUHU216HW,2013-08-04 19:03:00,
2013-08-04 15:08:00,83.9,67.1,29.99,SSW,203,0.4,2.2,57,0.00,,,0.00,WUHU216HW,2013-08-04 19:08:00,
2013-08-04 15:13:00,83.3,66.5,29.99,North,0,0.4,0.8,57,0.00,,,0.00,WUHU216HW,2013-08-04 19:13:00,
2013-08-04 15:18:00,83.5,67.7,29.99,NE,45,0.8,0.8,59,0.00,,,0.00,WUHU216HW,2013-08-04 19:18:00,
2013-08-04 15:22:00,84.2,68.9,29.99,North,0,0.8,2.6,60,0.00,,,0.00,WUHU216HW,2013-08-04 19:22:00,
2013-08-04 15:28:00,84.4,68.6,29.99,NW,315,0.0,2.6,59,0.00,,,0.00,WUHU216HW,2013-08-04 19:28:00,
2013-08-04 15:33:00,84.1,68.2,29.99,SW,225,0.8,2.6,59,0.00,,,0.00,WUHU216HW,2013-08-04 19:33:00,
2013-08-04 15:38:00,83.9,67.5,29.98,North,0,1.4,2.6,58,0.00,,,0.00,WUHU216HW,2013-08-04 19:38:00,
2013-08-04 15:43:00,84.6,67.1,29.98,North,0,2.2,2.2,56,0.00,,,0.00,WUHU216HW,2013-08-04 19:43:00,
2013-08-04 15:48:00,85.3,68.9,29.99,West,270,2.2,2.6,58,0.00,,,0.00,WUHU216HW,2013-08-04 19:48:00,
2013-08-04 15:53:00,84.6,67.1,29.99,WNW,293,0.0,2.6,56,0.00,,,0.00,WUHU216HW,2013-08-04 19:53:00,
2013-08-04 15:57:00,83.9,67.5,29.98,NW,315,0.8,2.2,58,0.00,,,0.00,WUHU216HW,2013-08-04 19:57:00,
2013-08-04 16:03:00,84.2,65.3,29.99,ESE,113,0.4,1.4,53,0.00,,,0.00,WUHU216HW,2013-08-04 20:03:00,
2013-08-04 16:08:00,84.6,65.6,29.99,NE,45,0.8,3.2,53,0.00,,,0.00,WUHU216HW,2013-08-04 20:08:00,
2013-08-04 16:12:00,84.8,67.3,29.99,North,0,0.4,3.2,56,0.00,,,0.00,WUHU216HW,2013-08-04 20:12:00,
2013-08-04 16:18:00,84.1,66.2,29.99,West,270,1.4,2.2,55,0.00,,,0.00,WUHU216HW,2013-08-04 20:18:00,
2013-08-04 16:23:00,83.9,67.5,29.99,NNE,23,0.0,1.4,58,0.00,,,0.00,WUHU216HW,2013-08-04 20:23:00,
2013-08-04 16:27:00,84.4,66.5,29.99,NNE,23,0.8,2.2,55,0.00,,,0.00,WUHU216HW,2013-08-04 20:27:00,
2013-08-04 16:32:00,84.6,66.2,29.99,NE,45,1.4,2.2,54,0.00,,,0.00,WUHU216HW,2013-08-04 20:32:00,
2013-08-04 16:38:00,84.2,66.3,29.99,NNW,338,1.8,2.2,55,0.00,,,0.00,WUHU216HW,2013-08-04 20:38:00,
2013-08-04 16:43:00,83.5,67.1,29.99,NNE,23,0.4,2.2,58,0.00,,,0.00,WUHU216HW,2013-08-04 20:43:00,
2013-08-04 16:48:00,83.5,65.1,29.99,NE,45,0.4,2.2,54,0.00,,,0.00,WUHU216HW,2013-08-04 20:48:00,
2013-08-04 16:53:00,84.1,66.7,29.99,NE,45,0.0,1.4,56,0.00,,,0.00,WUHU216HW,2013-08-04 20:53:00,
2013-08-04 16:58:00,84.2,66.9,29.99,NE,45,0.0,1.4,56,0.00,,,0.00,WUHU216HW,2013-08-04 20:58:00,
2013-08-04 17:02:00,83.9,66.0,29.99,NE,45,0.0,2.2,55,0.00,,,0.00,WUHU216HW,2013-08-04 21:02:00,
2013-08-04 17:08:00,83.2,65.3,29.99,NE,45,0.4,2.2,55,0.00,,,0.00,WUHU216HW,2013-08-04 21:08:00,
2013-08-04 17:13:00,83.0,65.1,29.99,NE,45,0.4,0.8,55,0.00,,,0.00,WUHU216HW,2013-08-04 21:13:00,
2013-08-04 17:18:00,83.2,66.3,29.99,WSW,248,0.0,0.8,57,0.00,,,0.00,WUHU216HW,2013-08-04 21:18:00,
2013-08-04 17:23:00,83.2,66.3,29.99,ENE,68,0.8,0.8,57,0.00,,,0.00,WUHU216HW,2013-08-04 21:23:00,
2013-08-04 17:28:00,82.8,64.4,29.99,SSW,203,0.4,0.8,54,0.00,,,0.00,WUHU216HW,2013-08-04 21:28:00,
2013-08-04 17:32:00,83.0,64.5,29.99,NE,45,0.0,1.4,54,0.00,,,0.00,WUHU216HW,2013-08-04 21:32:00,
2013-08-04 17:38:00,83.2,64.2,29.99,ENE,68,3.6,3.6,53,0.00,,,0.00,WUHU216HW,2013-08-04 21:38:00,
2013-08-04 17:43:00,83.2,64.7,29.99,SE,135,0.0,3.6,54,0.00,,,0.00,WUHU216HW,2013-08-04 21:43:00,
2013-08-04 17:48:00,82.6,64.2,29.99,SSW,203,0.8,1.4,54,0.00,,,0.00,WUHU216HW,2013-08-04 21:48:00,
2013-08-04 17:49:00,82.4,64.0,29.99,SSW,203,0.0,0.8,54,0.00,,,0.00,WUHU216HW,2013-08-04 21:49:00,
2013-08-04 17:54:00,82.4,63.5,29.99,NE,45,0.8,1.8,53,0.00,,,0.00,WUHU216HW,2013-08-04 21:54:00,
2013-08-04 17:59:00,82.4,63.5,29.99,East,90,0.0,1.8,53,0.00,,,0.00,WUHU216HW,2013-08-04 21:59:00,
2013-08-04 18:04:00,82.4,64.0,29.99,East,90,0.8,1.4,54,0.00,,,0.00,WUHU216HW,2013-08-04 22:04:00,
2013-08-04 18:09:00,82.1,63.7,29.99,NE,45,0.4,1.4,54,0.00,,,0.00,WUHU216HW,2013-08-04 22:09:00,
2013-08-04 18:14:00,82.1,65.3,29.99,North,0,0.0,0.8,57,0.00,,,0.00,WUHU216HW,2013-08-04 22:14:00,
2013-08-04 18:19:00,82.3,63.8,29.99,NE,45,0.0,0.8,54,0.00,,,0.00,WUHU216HW,2013-08-04 22:19:00,
2013-08-04 18:24:00,82.4,64.5,29.99,SE,135,0.0,0.8,55,0.00,,,0.00,WUHU216HW,2013-08-04 22:24:00,
2013-08-04 18:29:00,82.3,64.4,30.00,SE,135,0.0,0.8,55,0.00,,,0.00,WUHU216HW,2013-08-04 22:29:00,
2013-08-04 18:34:00,82.3,66.0,30.00,SSW,203,0.0,0.8,58,0.00,,,0.00,WUHU216HW,2013-08-04 22:34:00,
2013-08-04 18:39:00,82.3,63.8,30.00,SE,135,0.0,0.0,54,0.00,,,0.00,WUHU216HW,2013-08-04 22:39:00,
2013-08-04 18:44:00,81.9,64.1,30.00,SE,135,0.0,0.0,55,0.00,,,0.00,WUHU216HW,2013-08-04 22:44:00,
2013-08-04 18:49:00,81.2,63.9,29.99,SSE,158,0.0,0.0,56,0.00,,,0.00,WUHU216HW,2013-08-04 22:49:00,
2013-08-04 18:54:00,80.8,64.1,29.99,SSE,158,0.0,0.0,57,0.00,,,0.00,WUHU216HW,2013-08-04 22:54:00,
2013-08-04 18:59:00,80.6,64.4,30.00,SSE,158,0.0,0.0,58,0.00,,,0.00,WUHU216HW,2013-08-04 22:59:00,
2013-08-04 19:04:00,80.5,64.4,30.00,SSE,158,0.0,0.0,58,0.00,,,0.00,WUHU216HW,2013-08-04 23:04:00,
2013-08-04 19:09:00,79.7,64.2,30.00,SSE,158,0.0,0.0,59,0.00,,,0.00,WUHU216HW,2013-08-04 23:09:00,
2013-08-04 19:14:00,79.4,64.4,30.00,SSE,158,0.0,0.0,60,0.00,,,0.00,WUHU216HW,2013-08-04 23:14:00,
2013-08-04 19:19:00,79.7,65.2,30.00,SSE,158,0.0,0.0,61,0.00,,,0.00,WUHU216HW,2013-08-04 23:19:00,
2013-08-04 19:24:00,79.7,64.7,30.00,SSE,158,0.0,0.0,60,0.00,,,0.00,WUHU216HW,2013-08-04 23:24:00,
2013-08-04 19:29:00,79.4,64.8,30.00,SSE,158,0.0,0.0,61,0.00,,,0.00,WUHU216HW,2013-08-04 23:29:00,
2013-08-04 19:34:00,79.4,65.3,30.00,SSE,158,0.0,0.0,62,0.00,,,0.00,WUHU216HW,2013-08-04 23:34:00,
2013-08-04 19:39:00,79.7,65.2,30.00,SSE,158,0.0,0.0,61,0.00,,,0.00,WUHU216HW,2013-08-04 23:39:00,
2013-08-04 19:44:00,79.6,65.0,30.00,SSE,158,0.0,0.0,61,0.00,,,0.00,WUHU216HW,2013-08-04 23:44:00,
2013-08-04 19:49:00,79.0,64.5,30.00,SSE,158,0.0,0.0,61,0.00,,,0.00,WUHU216HW,2013-08-04 23:49:00,
2013-08-04 19:54:00,78.7,65.0,30.00,SSE,158,0.0,0.0,63,0.00,,,0.00,WUHU216HW,2013-08-04 23:54:00,
2013-08-04 19:59:00,78.7,64.6,30.01,SSE,158,0.0,0.0,62,0.00,,,0.00,WUHU216HW,2013-08-04 23:59:00,
2013-08-04 20:04:00,78.5,64.0,30.01,SSE,158,0.0,0.0,61,0.00,,,0.00,WUHU216HW,2013-08-05 00:04:00,
2013-08-04 20:09:00,77.9,63.9,30.01,SSE,158,0.0,0.0,62,0.00,,,0.00,WUHU216HW,2013-08-05 00:09:00,
2013-08-04 20:14:00,77.2,64.1,30.01,SSE,158,0.0,0.0,64,0.00,,,0.00,WUHU216HW,2013-08-05 00:14:00,
2013-08-04 20:19:00,77.2,64.1,30.01,SSE,158,0.0,0.0,64,0.00,,,0.00,WUHU216HW,2013-08-05 00:19:00,
2013-08-04 20:24:00,77.0,63.5,30.01,SSE,158,0.0,0.0,63,0.00,,,0.00,WUHU216HW,2013-08-05 00:24:00,
2013-08-04 20:29:00,76.3,63.2,30.01,SSE,158,0.0,0.0,64,0.00,,,0.00,WUHU216HW,2013-08-05 00:29:00,
2013-08-04 20:34:00,76.1,63.5,30.01,SSE,158,0.0,0.0,65,0.00,,,0.00,WUHU216HW,2013-08-05 00:34:00,
2013-08-04 20:39:00,76.3,63.6,30.01,SSE,158,0.0,0.0,65,0.00,,,0.00,WUHU216HW,2013-08-05 00:39:00,
2013-08-04 20:44:00,76.3,63.2,30.01,SSE,158,0.0,0.0,64,0.00,,,0.00,WUHU216HW,2013-08-05 00:44:00,
2013-08-04 20:49:00,76.0,62.9,30.01,SSE,158,0.0,0.0,64,0.00,,,0.00,WUHU216HW,2013-08-05 00:49:00,
2013-08-04 20:54:00,75.6,63.5,30.02,SSE,158,0.0,0.0,66,0.00,,,0.00,WUHU216HW,2013-08-05 00:54:00,
2013-08-04 20:59:00,75.6,63.5,30.02,SSE,158,0.0,0.0,66,0.00,,,0.00,WUHU216HW,2013-08-05 00:59:00,
2013-08-04 21:04:00,75.8,63.2,30.02,SSE,158,0.0,0.0,65,0.00,,,0.00,WUHU216HW,2013-08-05 01:04:00,
2013-08-04 21:09:00,75.2,62.6,30.02,SSE,158,0.0,0.0,65,0.00,,,0.00,WUHU216HW,2013-08-05 01:09:00,
2013-08-04 21:14:00,74.7,63.5,30.02,SSE,158,0.0,0.0,68,0.00,,,0.00,WUHU216HW,2013-08-05 01:14:00,
2013-08-04 21:19:00,74.9,63.6,30.02,SSE,158,0.0,0.0,68,0.00,,,0.00,WUHU216HW,2013-08-05 01:19:00,
2013-08-04 21:24:00,74.9,63.2,30.03,SSE,158,0.0,0.0,67,0.00,,,0.00,WUHU216HW,2013-08-05 01:24:00,
2013-08-04 21:29:00,74.5,62.4,30.03,SSE,158,0.0,0.0,66,0.00,,,0.00,WUHU216HW,2013-08-05 01:29:00,
2013-08-04 21:34:00,74.0,62.8,30.03,SSE,158,0.0,0.0,68,0.00,,,0.00,WUHU216HW,2013-08-05 01:34:00,
2013-08-04 21:39:00,74.0,63.6,30.03,SSE,158,0.0,0.0,70,0.00,,,0.00,WUHU216HW,2013-08-05 01:39:00,
2013-08-04 21:44:00,74.5,63.7,30.04,East,90,0.0,1.4,69,0.00,,,0.00,WUHU216HW,2013-08-05 01:44:00,
2013-08-04 21:49:00,74.3,63.1,30.04,East,90,0.0,1.4,68,0.00,,,0.00,WUHU216HW,2013-08-05 01:49:00,
2013-08-04 21:54:00,74.0,63.2,30.04,East,90,0.0,0.0,69,0.00,,,0.00,WUHU216HW,2013-08-05 01:54:00,
2013-08-04 21:59:00,74.0,64.1,30.04,East,90,0.0,0.0,71,0.00,,,0.00,WUHU216HW,2013-08-05 01:59:00,
2013-08-04 22:04:00,74.0,63.6,30.04,East,90,0.0,0.0,70,0.00,,,0.00,WUHU216HW,2013-08-05 02:04:00,
2013-08-04 22:09:00,73.6,62.9,30.04,SSE,158,0.8,0.8,69,0.00,,,0.00,WUHU216HW,2013-08-05 02:09:00,
2013-08-04 22:14:00,73.1,62.4,30.04,SSE,158,0.4,0.8,69,0.00,,,0.00,WUHU216HW,2013-08-05 02:14:00,
2013-08-04 22:19:00,72.9,63.0,30.05,SSE,158,0.0,0.8,71,0.00,,,0.00,WUHU216HW,2013-08-05 02:19:00,
2013-08-04 22:24:00,73.4,63.5,30.04,SSE,158,0.0,0.0,71,0.00,,,0.00,WUHU216HW,2013-08-05 02:24:00,
2013-08-04 22:29:00,73.4,63.2,30.05,SSE,158,0.8,0.8,70,0.00,,,0.00,WUHU216HW,2013-08-05 02:29:00,
2013-08-04 22:34:00,73.1,62.8,30.05,SSE,158,0.0,0.8,70,0.00,,,0.00,WUHU216HW,2013-08-05 02:34:00,
2013-08-04 22:39:00,72.4,62.8,30.05,SSE,158,0.0,0.0,72,0.00,,,0.00,WUHU216HW,2013-08-05 02:39:00,
2013-08-04 22:44:00,72.5,63.0,30.05,SSE,158,0.0,0.0,72,0.00,,,0.00,WUHU216HW,2013-08-05 02:44:00,
2013-08-04 22:49:00,72.5,62.6,30.05,SSE,158,0.0,0.0,71,0.00,,,0.00,WUHU216HW,2013-08-05 02:49:00,
2013-08-04 22:54:00,72.4,62.1,30.05,SSE,158,0.4,0.8,70,0.00,,,0.00,WUHU216HW,2013-08-05 02:54:00,
2013-08-04 22:59:00,71.8,61.6,30.05,South,180,0.0,0.8,70,0.00,,,0.00,WUHU216HW,2013-08-05 02:59:00,
2013-08-04 23:04:00,71.6,62.6,30.05,South,180,0.0,0.0,73,0.00,,,0.00,WUHU216HW,2013-08-05 03:04:00,
2013-08-04 23:09:00,72.2,62.6,30.05,South,180,0.0,0.0,72,0.00,,,0.00,WUHU216HW,2013-08-05 03:09:00,
2013-08-04 23:14:00,72.0,62.1,30.05,South,180,0.0,0.0,71,0.00,,,0.00,WUHU216HW,2013-08-05 03:14:00,
2013-08-04 23:19:00,71.6,61.4,30.05,SSE,158,0.8,0.8,70,0.00,,,0.00,WUHU216HW,2013-08-05 03:19:00,
2013-08-04 23:24:00,71.3,62.2,30.05,SSE,158,0.0,0.8,73,0.00,,,0.00,WUHU216HW,2013-08-05 03:24:00,
2013-08-04 23:29:00,71.8,62.3,30.05,SSE,158,0.0,0.0,72,0.00,,,0.00,WUHU216HW,2013-08-05 03:29:00,
2013-08-04 23:34:00,72.2,62.6,30.05,South,180,0.0,0.0,72,0.00,,,0.00,WUHU216HW,2013-08-05 03:34:00,
2013-08-04 23:39:00,71.5,61.6,30.05,SSW,203,0.0,0.0,71,0.00,,,0.00,WUHU216HW,2013-08-05 03:39:00,
2013-08-04 23:44:00,70.7,60.8,30.05,SSW,203,0.0,0.0,71,0.00,,,0.00,WUHU216HW,2013-08-05 03:44:00,
2013-08-04 23:49:00,70.9,61.8,30.05,SSW,203,0.0,0.0,73,0.00,,,0.00,WUHU216HW,2013-08-05 03:49:00,
2013-08-04 23:54:00,71.3,61.7,30.05,SSW,203,0.0,0.0,72,0.00,,,0.00,WUHU216HW,2013-08-05 03:54:00,
2013-08-04 23:59:00,71.1,61.2,30.06,SSW,203,0.0,0.0,71,0.00,,,0.00,WUHU216HW,2013-08-05 03:59:00,